sensor_id;sensor_type;location;lat;lon;timestamp;pressure;altitude;pressure_sealevel;temperature;humidity
75996;BME280;64681;49.738;9.004;2023-02-14T00:02:11;101435.09;;;0.14;79.70
75996;BME280;64681;49.738;9.004;2023-02-14T00:04:36;101436.31;;;0.18;79.16
75996;BME280;64681;49.738;9.004;2023-02-14T00:07:09;101439.72;;;0.19;79.28
75996;BME280;64681;49.738;9.004;2023-02-14T00:09:35;101437.09;;;0.19;78.99
75996;BME280;64681;49.738;9.004;2023-02-14T00:12:01;101442.38;;;0.12;78.86
75996;BME280;64681;49.738;9.004;2023-02-14T00:14:27;101443.25;;;-0.01;79.35
75996;BME280;64681;49.738;9.004;2023-02-14T00:17:11;101435.00;;;-0.18;79.95
75996;BME280;64681;49.738;9.004;2023-02-14T00:19:37;101440.47;;;-0.26;80.53
75996;BME280;64681;49.738;9.004;2023-02-14T00:22:03;101440.84;;;-0.23;80.83
75996;BME280;64681;49.738;9.004;2023-02-14T00:24:29;101433.97;;;-0.10;79.91
75996;BME280;64681;49.738;9.004;2023-02-14T00:26:55;101435.38;;;-0.08;79.44
75996;BME280;64681;49.738;9.004;2023-02-14T00:29:25;101427.16;;;-0.25;79.99
75996;BME280;64681;49.738;9.004;2023-02-14T00:31:51;101430.13;;;-0.14;79.48
75996;BME280;64681;49.738;9.004;2023-02-14T00:34:17;101434.38;;;-0.13;79.65
75996;BME280;64681;49.738;9.004;2023-02-14T00:36:44;101424.50;;;-0.18;79.18
75996;BME280;64681;49.738;9.004;2023-02-14T00:39:12;101428.13;;;-0.19;79.34
75996;BME280;64681;49.738;9.004;2023-02-14T00:41:39;101420.84;;;-0.10;78.73
75996;BME280;64681;49.738;9.004;2023-02-14T00:44:05;101421.06;;;-0.19;79.24
75996;BME280;64681;49.738;9.004;2023-02-14T00:46:32;101415.66;;;-0.24;79.09
75996;BME280;64681;49.738;9.004;2023-02-14T00:48:57;101415.00;;;-0.19;79.07
75996;BME280;64681;49.738;9.004;2023-02-14T00:51:23;101411.53;;;-0.06;78.20
75996;BME280;64681;49.738;9.004;2023-02-14T00:53:49;101416.25;;;-0.42;80.32
75996;BME280;64681;49.738;9.004;2023-02-14T00:56:17;101413.31;;;-0.86;82.72
75996;BME280;64681;49.738;9.004;2023-02-14T00:58:44;101414.31;;;-0.87;82.83
75996;BME280;64681;49.738;9.004;2023-02-14T01:01:10;101422.75;;;-0.65;81.24
75996;BME280;64681;49.738;9.004;2023-02-14T01:03:36;101424.38;;;-0.57;80.54
75996;BME280;64681;49.738;9.004;2023-02-14T01:06:02;101431.03;;;-0.47;79.55
75996;BME280;64681;49.738;9.004;2023-02-14T01:08:28;101427.41;;;-0.73;81.01
75996;BME280;64681;49.738;9.004;2023-02-14T01:10:53;101433.06;;;-0.83;82.23
75996;BME280;64681;49.738;9.004;2023-02-14T01:13:19;101429.84;;;-0.65;81.15
75996;BME280;64681;49.738;9.004;2023-02-14T01:15:50;101428.78;;;-0.37;80.46
75996;BME280;64681;49.738;9.004;2023-02-14T01:18:17;101435.09;;;-0.58;80.42
75996;BME280;64681;49.738;9.004;2023-02-14T01:20:43;101435.28;;;-0.67;80.32
75996;BME280;64681;49.738;9.004;2023-02-14T01:23:09;101434.06;;;-0.57;79.70
75996;BME280;64681;49.738;9.004;2023-02-14T01:25:36;101441.34;;;-0.73;80.45
75996;BME280;64681;49.738;9.004;2023-02-14T01:28:03;101439.72;;;-0.74;80.28
75996;BME280;64681;49.738;9.004;2023-02-14T01:30:29;101438.31;;;-0.83;80.22
75996;BME280;64681;49.738;9.004;2023-02-14T01:32:55;101434.88;;;-0.77;80.30
75996;BME280;64681;49.738;9.004;2023-02-14T01:35:20;101434.88;;;-0.70;80.03
75996;BME280;64681;49.738;9.004;2023-02-14T01:37:46;101426.81;;;-0.82;80.14
75996;BME280;64681;49.738;9.004;2023-02-14T01:40:13;101432.25;;;-0.77;80.17
75996;BME280;64681;49.738;9.004;2023-02-14T01:42:38;101433.06;;;-0.70;79.59
75996;BME280;64681;49.738;9.004;2023-02-14T01:45:20;101430.66;;;-0.85;80.44
75996;BME280;64681;49.738;9.004;2023-02-14T01:47:51;101430.84;;;-0.86;80.05
75996;BME280;64681;49.738;9.004;2023-02-14T01:50:29;101425.19;;;-0.83;80.02
75996;BME280;64681;49.738;9.004;2023-02-14T01:53:07;101431.44;;;-0.64;79.36
75996;BME280;64681;49.738;9.004;2023-02-14T01:55:39;101436.69;;;-0.57;79.01
75996;BME280;64681;49.738;9.004;2023-02-14T01:58:36;101420.94;;;-0.71;79.42
75996;BME280;64681;49.738;9.004;2023-02-14T02:01:03;101429.66;;;-0.70;79.18
75996;BME280;64681;49.738;9.004;2023-02-14T02:03:37;101423.78;;;-0.72;78.78
75996;BME280;64681;49.738;9.004;2023-02-14T02:06:11;101413.69;;;-0.89;78.93
75996;BME280;64681;49.738;9.004;2023-02-14T02:08:43;101412.31;;;-0.85;78.79
75996;BME280;64681;49.738;9.004;2023-02-14T02:11:12;101423.56;;;-1.11;79.99
75996;BME280;64681;49.738;9.004;2023-02-14T02:13:38;101419.13;;;-0.97;79.05
75996;BME280;64681;49.738;9.004;2023-02-14T02:19:21;101419.34;;;-0.99;79.84
75996;BME280;64681;49.738;9.004;2023-02-14T02:24:18;101423.16;;;-1.15;79.50
75996;BME280;64681;49.738;9.004;2023-02-14T02:30:03;101417.31;;;-1.17;79.80
75996;BME280;64681;49.738;9.004;2023-02-14T02:38:52;101421.97;;;-1.12;79.92
75996;BME280;64681;49.738;9.004;2023-02-14T02:44:15;101428.41;;;-1.21;79.32
75996;BME280;64681;49.738;9.004;2023-02-14T02:46:47;101421.97;;;-0.99;79.33
75996;BME280;64681;49.738;9.004;2023-02-14T02:52:47;101429.97;;;-1.34;80.51
75996;BME280;64681;49.738;9.004;2023-02-14T02:55:54;101420.28;;;-1.40;80.52
75996;BME280;64681;49.738;9.004;2023-02-14T02:58:45;101427.94;;;-1.45;80.80
75996;BME280;64681;49.738;9.004;2023-02-14T03:01:33;101431.00;;;-1.28;79.52
75996;BME280;64681;49.738;9.004;2023-02-14T03:04:04;101422.72;;;-1.32;79.88
75996;BME280;64681;49.738;9.004;2023-02-14T03:06:50;101426.75;;;-1.36;80.19
75996;BME280;64681;49.738;9.004;2023-02-14T03:17:32;101416.78;;;-1.67;84.05
75996;BME280;64681;49.738;9.004;2023-02-14T03:33:26;101413.91;;;-1.10;80.54
75996;BME280;64681;49.738;9.004;2023-02-14T03:38:46;101409.84;;;-1.06;81.11
75996;BME280;64681;49.738;9.004;2023-02-14T03:41:20;101415.09;;;-1.20;81.75
75996;BME280;64681;49.738;9.004;2023-02-14T03:43:57;101419.16;;;-1.04;80.85
75996;BME280;64681;49.738;9.004;2023-02-14T03:49:06;101420.34;;;-1.13;81.11
75996;BME280;64681;49.738;9.004;2023-02-14T03:51:36;101422.75;;;-1.18;82.15
75996;BME280;64681;49.738;9.004;2023-02-14T03:54:08;101411.88;;;-1.02;80.91
75996;BME280;64681;49.738;9.004;2023-02-14T03:56:47;101412.28;;;-0.98;80.74
75996;BME280;64681;49.738;9.004;2023-02-14T03:59:16;101420.38;;;-0.93;80.77
75996;BME280;64681;49.738;9.004;2023-02-14T04:04:28;101423.38;;;-0.62;80.00
75996;BME280;64681;49.738;9.004;2023-02-14T04:06:56;101417.31;;;-0.63;80.27
75996;BME280;64681;49.738;9.004;2023-02-14T04:09:21;101420.94;;;-0.71;80.09
75996;BME280;64681;49.738;9.004;2023-02-14T04:11:48;101417.94;;;-0.68;80.10
75996;BME280;64681;49.738;9.004;2023-02-14T04:14:15;101421.34;;;-0.60;79.66
75996;BME280;64681;49.738;9.004;2023-02-14T04:16:41;101422.38;;;-0.82;80.30
75996;BME280;64681;49.738;9.004;2023-02-14T04:19:25;101423.19;;;-0.81;80.62
75996;BME280;64681;49.738;9.004;2023-02-14T04:21:52;101430.63;;;-0.78;80.63
75996;BME280;64681;49.738;9.004;2023-02-14T04:24:18;101433.88;;;-0.62;80.88
75996;BME280;64681;49.738;9.004;2023-02-14T04:26:44;101430.59;;;-0.38;80.47
75996;BME280;64681;49.738;9.004;2023-02-14T04:29:35;101428.16;;;-0.33;80.89
75996;BME280;64681;49.738;9.004;2023-02-14T04:32:01;101430.13;;;-0.14;80.53
75996;BME280;64681;49.738;9.004;2023-02-14T04:34:26;101427.13;;;-0.11;80.92
75996;BME280;64681;49.738;9.004;2023-02-14T04:36:52;101424.25;;;0.04;81.12
75996;BME280;64681;49.738;9.004;2023-02-14T04:39:18;101425.59;;;0.13;80.99
75996;BME280;64681;49.738;9.004;2023-02-14T04:41:43;101422.34;;;0.24;81.17
75996;BME280;64681;49.738;9.004;2023-02-14T04:44:09;101424.72;;;0.33;80.94
75996;BME280;64681;49.738;9.004;2023-02-14T04:46:34;101422.28;;;0.70;78.98
75996;BME280;64681;49.738;9.004;2023-02-14T04:49:00;101424.97;;;0.63;79.52
75996;BME280;64681;49.738;9.004;2023-02-14T04:51:25;101426.28;;;0.79;78.56
75996;BME280;64681;49.738;9.004;2023-02-14T04:53:51;101425.31;;;0.73;79.16
75996;BME280;64681;49.738;9.004;2023-02-14T04:56:16;101425.94;;;0.69;80.01
75996;BME280;64681;49.738;9.004;2023-02-14T04:58:42;101421.53;;;0.62;80.69
75996;BME280;64681;49.738;9.004;2023-02-14T05:01:07;101426.84;;;0.81;80.19
75996;BME280;64681;49.738;9.004;2023-02-14T05:03:33;101426.34;;;0.98;80.05
75996;BME280;64681;49.738;9.004;2023-02-14T05:05:58;101427.53;;;1.02;79.95
75996;BME280;64681;49.738;9.004;2023-02-14T05:08:24;101423.81;;;1.09;80.70
75996;BME280;64681;49.738;9.004;2023-02-14T05:10:49;101408.41;;;1.13;80.58
75996;BME280;64681;49.738;9.004;2023-02-14T05:13:15;101412.78;;;1.26;79.89
75996;BME280;64681;49.738;9.004;2023-02-14T05:15:44;101414.34;;;1.34;80.27
75996;BME280;64681;49.738;9.004;2023-02-14T05:18:09;101408.19;;;1.40;80.21
75996;BME280;64681;49.738;9.004;2023-02-14T05:20:35;101401.31;;;1.39;80.14
75996;BME280;64681;49.738;9.004;2023-02-14T05:23:00;101411.50;;;1.54;80.05
75996;BME280;64681;49.738;9.004;2023-02-14T05:25:29;101404.41;;;1.54;79.67
75996;BME280;64681;49.738;9.004;2023-02-14T05:27:54;101404.13;;;1.63;79.91
75996;BME280;64681;49.738;9.004;2023-02-14T05:30:20;101405.88;;;1.69;79.90
75996;BME280;64681;49.738;9.004;2023-02-14T05:32:52;101401.75;;;1.73;80.22
75996;BME280;64681;49.738;9.004;2023-02-14T05:35:18;101399.06;;;1.80;79.72
75996;BME280;64681;49.738;9.004;2023-02-14T05:37:44;101400.03;;;1.85;78.15
75996;BME280;64681;49.738;9.004;2023-02-14T05:40:10;101403.66;;;1.47;79.00
75996;BME280;64681;49.738;9.004;2023-02-14T05:42:38;101402.59;;;1.73;78.71
75996;BME280;64681;49.738;9.004;2023-02-14T05:45:04;101399.50;;;1.58;78.88
75996;BME280;64681;49.738;9.004;2023-02-14T05:47:30;101409.75;;;1.66;79.28
75996;BME280;64681;49.738;9.004;2023-02-14T05:49:56;101409.31;;;1.69;79.27
75996;BME280;64681;49.738;9.004;2023-02-14T05:52:21;101400.59;;;1.69;79.67
75996;BME280;64681;49.738;9.004;2023-02-14T05:54:47;101401.47;;;1.81;79.48
75996;BME280;64681;49.738;9.004;2023-02-14T05:57:13;101413.84;;;1.99;78.47
75996;BME280;64681;49.738;9.004;2023-02-14T05:59:38;101411.06;;;1.94;78.26
75996;BME280;64681;49.738;9.004;2023-02-14T06:02:04;101410.47;;;2.11;77.71
75996;BME280;64681;49.738;9.004;2023-02-14T06:04:29;101411.78;;;2.01;78.81
75996;BME280;64681;49.738;9.004;2023-02-14T06:06:55;101416.41;;;2.06;78.26
75996;BME280;64681;49.738;9.004;2023-02-14T06:09:21;101412.66;;;2.14;78.12
75996;BME280;64681;49.738;9.004;2023-02-14T06:11:46;101410.69;;;2.09;79.13
75996;BME280;64681;49.738;9.004;2023-02-14T06:14:12;101412.31;;;2.10;79.11
75996;BME280;64681;49.738;9.004;2023-02-14T06:16:37;101408.25;;;2.08;78.30
75996;BME280;64681;49.738;9.004;2023-02-14T06:19:03;101424.59;;;2.16;78.39
75996;BME280;64681;49.738;9.004;2023-02-14T06:21:28;101414.41;;;2.20;78.58
75996;BME280;64681;49.738;9.004;2023-02-14T06:23:54;101416.59;;;2.23;78.84
75996;BME280;64681;49.738;9.004;2023-02-14T06:26:20;101415.56;;;2.24;78.76
75996;BME280;64681;49.738;9.004;2023-02-14T06:28:45;101411.38;;;2.35;77.74
75996;BME280;64681;49.738;9.004;2023-02-14T06:31:15;101414.22;;;2.33;78.51
75996;BME280;64681;49.738;9.004;2023-02-14T06:33:42;101419.63;;;2.38;78.69
75996;BME280;64681;49.738;9.004;2023-02-14T06:36:08;101423.09;;;2.39;78.79
75996;BME280;64681;49.738;9.004;2023-02-14T06:38:34;101417.00;;;2.38;78.55
75996;BME280;64681;49.738;9.004;2023-02-14T06:41:04;101423.69;;;2.41;77.04
75996;BME280;64681;49.738;9.004;2023-02-14T06:43:31;101416.56;;;2.42;78.04
75996;BME280;64681;49.738;9.004;2023-02-14T06:45:57;101418.31;;;2.48;77.67
75996;BME280;64681;49.738;9.004;2023-02-14T06:48:22;101426.09;;;2.24;77.35
75996;BME280;64681;49.738;9.004;2023-02-14T06:50:48;101426.75;;;2.38;77.64
75996;BME280;64681;49.738;9.004;2023-02-14T06:53:13;101420.88;;;2.66;74.79
75996;BME280;64681;49.738;9.004;2023-02-14T06:55:39;101424.91;;;2.38;75.79
75996;BME280;64681;49.738;9.004;2023-02-14T06:58:05;101418.84;;;2.38;75.99
75996;BME280;64681;49.738;9.004;2023-02-14T07:00:30;101427.41;;;2.33;76.80
75996;BME280;64681;49.738;9.004;2023-02-14T07:02:57;101434.47;;;2.21;78.33
75996;BME280;64681;49.738;9.004;2023-02-14T07:05:22;101427.78;;;2.37;78.25
75996;BME280;64681;49.738;9.004;2023-02-14T07:07:48;101428.53;;;2.26;78.67
75996;BME280;64681;49.738;9.004;2023-02-14T07:10:14;101420.34;;;2.46;77.59
75996;BME280;64681;49.738;9.004;2023-02-14T07:12:40;101426.72;;;2.57;76.86
75996;BME280;64681;49.738;9.004;2023-02-14T07:15:07;101424.94;;;2.50;78.04
75996;BME280;64681;49.738;9.004;2023-02-14T07:17:33;101435.28;;;2.52;76.29
75996;BME280;64681;49.738;9.004;2023-02-14T07:19:59;101430.63;;;2.66;76.90
75996;BME280;64681;49.738;9.004;2023-02-14T07:22:24;101435.09;;;2.65;77.26
75996;BME280;64681;49.738;9.004;2023-02-14T07:24:50;101427.88;;;2.61;76.35
75996;BME280;64681;49.738;9.004;2023-02-14T07:27:15;101424.56;;;2.65;77.21
75996;BME280;64681;49.738;9.004;2023-02-14T07:29:41;101432.19;;;2.85;76.78
75996;BME280;64681;49.738;9.004;2023-02-14T07:32:07;101433.56;;;2.88;77.08
75996;BME280;64681;49.738;9.004;2023-02-14T07:34:32;101426.56;;;2.82;77.45
75996;BME280;64681;49.738;9.004;2023-02-14T07:36:59;101433.47;;;2.95;77.80
75996;BME280;64681;49.738;9.004;2023-02-14T07:39:24;101424.06;;;2.99;76.18
75996;BME280;64681;49.738;9.004;2023-02-14T07:41:50;101431.53;;;3.14;76.61
75996;BME280;64681;49.738;9.004;2023-02-14T07:44:15;101430.38;;;3.22;76.41
75996;BME280;64681;49.738;9.004;2023-02-14T07:46:41;101430.28;;;3.28;75.03
75996;BME280;64681;49.738;9.004;2023-02-14T07:49:06;101428.53;;;3.22;76.55
75996;BME280;64681;49.738;9.004;2023-02-14T07:51:32;101431.91;;;3.29;76.04
75996;BME280;64681;49.738;9.004;2023-02-14T07:53:58;101422.56;;;3.15;76.59
75996;BME280;64681;49.738;9.004;2023-02-14T07:56:23;101424.09;;;3.35;77.23
75996;BME280;64681;49.738;9.004;2023-02-14T07:58:49;101427.28;;;3.60;73.60
75996;BME280;64681;49.738;9.004;2023-02-14T08:01:15;101425.69;;;3.59;73.09
75996;BME280;64681;49.738;9.004;2023-02-14T08:03:41;101433.38;;;3.37;73.94
75996;BME280;64681;49.738;9.004;2023-02-14T08:06:10;101431.31;;;3.39;75.07
75996;BME280;64681;49.738;9.004;2023-02-14T08:08:36;101427.16;;;3.67;73.39
75996;BME280;64681;49.738;9.004;2023-02-14T08:11:02;101428.72;;;2.85;75.69
75996;BME280;64681;49.738;9.004;2023-02-14T08:13:27;101430.13;;;3.11;74.34
75996;BME280;64681;49.738;9.004;2023-02-14T08:15:53;101424.78;;;3.42;73.58
75996;BME280;64681;49.738;9.004;2023-02-14T08:18:35;101427.59;;;3.76;73.77
75996;BME280;64681;49.738;9.004;2023-02-14T08:21:01;101427.19;;;4.08;73.15
75996;BME280;64681;49.738;9.004;2023-02-14T08:23:27;101428.47;;;4.34;72.91
75996;BME280;64681;49.738;9.004;2023-02-14T08:25:53;101426.22;;;4.26;72.19
75996;BME280;64681;49.738;9.004;2023-02-14T08:28:19;101431.81;;;4.01;73.60
75996;BME280;64681;49.738;9.004;2023-02-14T08:30:44;101419.53;;;3.94;75.47
75996;BME280;64681;49.738;9.004;2023-02-14T08:33:10;101418.59;;;4.01;73.95
75996;BME280;64681;49.738;9.004;2023-02-14T08:35:36;101419.72;;;4.46;75.17
75996;BME280;64681;49.738;9.004;2023-02-14T08:38:03;101420.31;;;4.65;72.97
75996;BME280;64681;49.738;9.004;2023-02-14T08:40:28;101421.97;;;4.54;70.00
75996;BME280;64681;49.738;9.004;2023-02-14T08:42:54;101430.59;;;4.95;70.78
75996;BME280;64681;49.738;9.004;2023-02-14T08:45:20;101430.69;;;5.17;70.15
75996;BME280;64681;49.738;9.004;2023-02-14T08:47:46;101425.78;;;5.09;71.63
75996;BME280;64681;49.738;9.004;2023-02-14T08:50:14;101428.09;;;5.22;72.03
75996;BME280;64681;49.738;9.004;2023-02-14T08:52:42;101427.91;;;5.46;71.57
75996;BME280;64681;49.738;9.004;2023-02-14T08:55:09;101418.66;;;5.88;66.85
75996;BME280;64681;49.738;9.004;2023-02-14T08:57:35;101426.00;;;5.42;66.70
75996;BME280;64681;49.738;9.004;2023-02-14T09:00:03;101404.25;;;4.71;68.74
75996;BME280;64681;49.738;9.004;2023-02-14T09:02:29;101416.16;;;5.59;66.29
75996;BME280;64681;49.738;9.004;2023-02-14T09:04:54;101422.88;;;4.94;68.53
75996;BME280;64681;49.738;9.004;2023-02-14T09:07:20;101414.44;;;5.48;69.64
75996;BME280;64681;49.738;9.004;2023-02-14T09:09:45;101410.59;;;5.78;66.80
75996;BME280;64681;49.738;9.004;2023-02-14T09:12:11;101410.34;;;6.01;64.53
75996;BME280;64681;49.738;9.004;2023-02-14T09:14:39;101409.69;;;5.94;66.68
75996;BME280;64681;49.738;9.004;2023-02-14T09:17:05;101413.53;;;6.26;65.15
75996;BME280;64681;49.738;9.004;2023-02-14T09:19:32;101412.72;;;6.25;64.01
75996;BME280;64681;49.738;9.004;2023-02-14T09:21:58;101411.91;;;6.47;63.09
75996;BME280;64681;49.738;9.004;2023-02-14T09:24:25;101413.53;;;6.53;64.03
75996;BME280;64681;49.738;9.004;2023-02-14T09:26:53;101407.56;;;6.68;63.09
75996;BME280;64681;49.738;9.004;2023-02-14T09:29:19;101401.72;;;6.39;63.35
75996;BME280;64681;49.738;9.004;2023-02-14T09:31:44;101402.78;;;6.65;63.97
75996;BME280;64681;49.738;9.004;2023-02-14T09:34:10;101408.44;;;6.79;63.16
75996;BME280;64681;49.738;9.004;2023-02-14T09:36:35;101405.16;;;7.42;60.45
75996;BME280;64681;49.738;9.004;2023-02-14T09:39:20;101395.31;;;7.37;60.68
75996;BME280;64681;49.738;9.004;2023-02-14T09:44:57;101403.13;;;6.79;61.54
75996;BME280;64681;49.738;9.004;2023-02-14T09:47:34;101402.09;;;7.12;61.72
75996;BME280;64681;49.738;9.004;2023-02-14T09:50:09;101392.50;;;7.59;60.39
75996;BME280;64681;49.738;9.004;2023-02-14T09:52:38;101391.66;;;7.49;60.21
75996;BME280;64681;49.738;9.004;2023-02-14T09:55:13;101396.28;;;6.51;63.33
75996;BME280;64681;49.738;9.004;2023-02-14T09:58:03;101394.03;;;7.02;61.30
75996;BME280;64681;49.738;9.004;2023-02-14T10:09:04;101390.81;;;4.73;68.26
75996;BME280;64681;49.738;9.004;2023-02-14T10:11:34;101382.63;;;4.57;69.28
75996;BME280;64681;49.738;9.004;2023-02-14T10:14:04;101392.56;;;3.80;72.48
75996;BME280;64681;49.738;9.004;2023-02-14T10:16:56;101392.09;;;2.65;76.26
75996;BME280;64681;49.738;9.004;2023-02-14T10:19:39;101392.94;;;2.89;75.78
75996;BME280;64681;49.738;9.004;2023-02-14T10:22:16;101383.16;;;2.78;75.89
75996;BME280;64681;49.738;9.004;2023-02-14T10:24:59;101395.97;;;3.05;74.62
75996;BME280;64681;49.738;9.004;2023-02-14T10:27:38;101387.72;;;2.59;76.86
75996;BME280;64681;49.738;9.004;2023-02-14T10:30:18;101391.34;;;2.46;77.01
75996;BME280;64681;49.738;9.004;2023-02-14T10:32:47;101381.66;;;2.58;76.89
75996;BME280;64681;49.738;9.004;2023-02-14T10:54:41;101374.88;;;2.62;76.56
75996;BME280;64681;49.738;9.004;2023-02-14T11:02:36;101356.09;;;2.82;76.71
75996;BME280;64681;49.738;9.004;2023-02-14T11:05:05;101356.06;;;2.59;78.02
75996;BME280;64681;49.738;9.004;2023-02-14T11:07:31;101344.78;;;3.06;76.76
75996;BME280;64681;49.738;9.004;2023-02-14T11:09:57;101341.44;;;2.87;77.46
75996;BME280;64681;49.738;9.004;2023-02-14T11:12:35;101354.53;;;3.05;77.13
75996;BME280;64681;49.738;9.004;2023-02-14T11:17:40;101340.97;;;3.13;76.29
75996;BME280;64681;49.738;9.004;2023-02-14T11:22:38;101331.75;;;3.52;74.86
75996;BME280;64681;49.738;9.004;2023-02-14T11:27:46;101325.78;;;3.85;73.71
75996;BME280;64681;49.738;9.004;2023-02-14T11:32:55;101326.53;;;4.26;71.85
75996;BME280;64681;49.738;9.004;2023-02-14T11:35:26;101324.41;;;4.11;72.42
75996;BME280;64681;49.738;9.004;2023-02-14T11:38:00;101312.50;;;4.26;72.50
75996;BME280;64681;49.738;9.004;2023-02-14T11:42:53;101297.13;;;4.57;70.49
75996;BME280;64681;49.738;9.004;2023-02-14T11:45:35;101307.41;;;4.36;71.93
75996;BME280;64681;49.738;9.004;2023-02-14T11:48:20;101307.72;;;4.40;70.88
75996;BME280;64681;49.738;9.004;2023-02-14T11:51:06;101301.13;;;4.08;72.46
75996;BME280;64681;49.738;9.004;2023-02-14T11:53:49;101293.66;;;4.22;71.85
75996;BME280;64681;49.738;9.004;2023-02-14T11:56:19;101283.75;;;4.30;72.03
75996;BME280;64681;49.738;9.004;2023-02-14T12:01:27;101284.94;;;4.05;74.12
75996;BME280;64681;49.738;9.004;2023-02-14T12:04:02;101275.78;;;3.95;73.80
75996;BME280;64681;49.738;9.004;2023-02-14T12:06:32;101267.22;;;4.22;72.76
75996;BME280;64681;49.738;9.004;2023-02-14T12:12:02;101272.91;;;4.82;71.08
75996;BME280;64681;49.738;9.004;2023-02-14T12:14:32;101269.03;;;4.90;69.84
75996;BME280;64681;49.738;9.004;2023-02-14T12:26:31;101261.94;;;4.73;71.45
75996;BME280;64681;49.738;9.004;2023-02-14T12:28:57;101251.28;;;4.68;72.05
75996;BME280;64681;49.738;9.004;2023-02-14T12:31:26;101246.63;;;4.75;71.09
75996;BME280;64681;49.738;9.004;2023-02-14T12:33:52;101253.31;;;4.83;71.18
75996;BME280;64681;49.738;9.004;2023-02-14T12:50:14;101216.78;;;4.80;71.68
75996;BME280;64681;49.738;9.004;2023-02-14T12:52:59;101218.69;;;5.07;71.86
75996;BME280;64681;49.738;9.004;2023-02-14T13:17:15;101197.06;;;5.15;71.91
75996;BME280;64681;49.738;9.004;2023-02-14T13:21:49;101181.88;;;5.55;68.92
75996;BME280;64681;49.738;9.004;2023-02-14T13:24:20;101192.56;;;5.98;68.51
75996;BME280;64681;49.738;9.004;2023-02-14T13:26:51;101191.19;;;5.90;68.19
75996;BME280;64681;49.738;9.004;2023-02-14T13:29:22;101191.25;;;5.41;70.63
75996;BME280;64681;49.738;9.004;2023-02-14T13:31:54;101184.13;;;5.68;69.59
75996;BME280;64681;49.738;9.004;2023-02-14T13:34:30;101186.81;;;5.74;69.63
75996;BME280;64681;49.738;9.004;2023-02-14T13:36:59;101182.19;;;5.59;69.96
75996;BME280;64681;49.738;9.004;2023-02-14T13:39:39;101184.38;;;5.67;70.38
75996;BME280;64681;49.738;9.004;2023-02-14T13:42:05;101182.16;;;5.86;69.70
75996;BME280;64681;49.738;9.004;2023-02-14T13:47:04;101174.91;;;5.76;70.27
75996;BME280;64681;49.738;9.004;2023-02-14T13:49:33;101168.63;;;5.55;70.01
75996;BME280;64681;49.738;9.004;2023-02-14T13:52:02;101173.81;;;5.99;69.31
75996;BME280;64681;49.738;9.004;2023-02-14T13:54:42;101169.66;;;5.81;69.58
75996;BME280;64681;49.738;9.004;2023-02-14T14:02:52;101167.25;;;5.25;72.34
75996;BME280;64681;49.738;9.004;2023-02-14T14:21:40;101165.28;;;5.65;71.20
75996;BME280;64681;49.738;9.004;2023-02-14T14:24:26;101163.47;;;5.70;70.86
75996;BME280;64681;49.738;9.004;2023-02-14T14:27:06;101164.72;;;5.35;72.30
75996;BME280;64681;49.738;9.004;2023-02-14T14:32:39;101158.03;;;5.55;71.73
75996;BME280;64681;49.738;9.004;2023-02-14T14:35:17;101154.53;;;5.22;71.87
75996;BME280;64681;49.738;9.004;2023-02-14T14:37:50;101154.84;;;5.03;72.57
75996;BME280;64681;49.738;9.004;2023-02-14T14:40:29;101152.31;;;5.41;71.96
75996;BME280;64681;49.738;9.004;2023-02-14T14:43:04;101153.00;;;5.04;72.41
75996;BME280;64681;49.738;9.004;2023-02-14T14:45:31;101149.13;;;5.39;71.68
75996;BME280;64681;49.738;9.004;2023-02-14T14:48:00;101151.19;;;5.10;73.03
75996;BME280;64681;49.738;9.004;2023-02-14T14:50:30;101150.16;;;5.38;71.63
75996;BME280;64681;49.738;9.004;2023-02-14T14:53:04;101143.94;;;5.22;72.70
75996;BME280;64681;49.738;9.004;2023-02-14T14:55:35;101137.88;;;5.54;71.48
75996;BME280;64681;49.738;9.004;2023-02-14T14:58:10;101148.97;;;5.51;71.21
75996;BME280;64681;49.738;9.004;2023-02-14T15:00:52;101143.72;;;5.01;73.14
75996;BME280;64681;49.738;9.004;2023-02-14T15:03:22;101137.66;;;5.06;72.33
75996;BME280;64681;49.738;9.004;2023-02-14T15:05:50;101147.44;;;4.83;73.24
75996;BME280;64681;49.738;9.004;2023-02-14T15:11:05;101143.16;;;4.77;73.56
75996;BME280;64681;49.738;9.004;2023-02-14T15:13:45;101141.16;;;5.12;72.92
75996;BME280;64681;49.738;9.004;2023-02-14T15:16:31;101136.94;;;4.88;72.97
75996;BME280;64681;49.738;9.004;2023-02-14T15:19:07;101131.69;;;4.71;73.93
75996;BME280;64681;49.738;9.004;2023-02-14T15:21:34;101138.69;;;4.78;73.32
75996;BME280;64681;49.738;9.004;2023-02-14T15:24:01;101128.31;;;4.76;73.69
75996;BME280;64681;49.738;9.004;2023-02-14T15:26:33;101138.19;;;4.58;74.59
75996;BME280;64681;49.738;9.004;2023-02-14T15:29:02;101130.81;;;4.21;75.48
75996;BME280;64681;49.738;9.004;2023-02-14T15:31:37;101133.66;;;4.59;74.18
75996;BME280;64681;49.738;9.004;2023-02-14T15:34:05;101131.97;;;4.31;75.36
75996;BME280;64681;49.738;9.004;2023-02-14T15:36:33;101133.69;;;4.03;75.65
75996;BME280;64681;49.738;9.004;2023-02-14T15:39:05;101132.50;;;3.93;76.58
75996;BME280;64681;49.738;9.004;2023-02-14T15:41:32;101130.00;;;4.21;75.75
75996;BME280;64681;49.738;9.004;2023-02-14T15:43:58;101127.50;;;4.14;75.76
75996;BME280;64681;49.738;9.004;2023-02-14T15:48:54;101134.75;;;3.85;76.62
75996;BME280;64681;49.738;9.004;2023-02-14T15:51:33;101122.50;;;3.78;76.57
75996;BME280;64681;49.738;9.004;2023-02-14T15:54:15;101128.16;;;4.04;75.83
75996;BME280;64681;49.738;9.004;2023-02-14T15:56:46;101131.53;;;4.00;76.01
75996;BME280;64681;49.738;9.004;2023-02-14T15:59:20;101126.97;;;4.12;75.39
75996;BME280;64681;49.738;9.004;2023-02-14T16:02:00;101133.28;;;3.60;77.11
75996;BME280;64681;49.738;9.004;2023-02-14T16:04:30;101140.28;;;3.37;77.64
75996;BME280;64681;49.738;9.004;2023-02-14T16:07:20;101139.38;;;3.31;78.56
75996;BME280;64681;49.738;9.004;2023-02-14T16:09:47;101139.84;;;2.99;79.49
75996;BME280;64681;49.738;9.004;2023-02-14T16:12:40;101136.66;;;2.97;79.81
75996;BME280;64681;49.738;9.004;2023-02-14T16:15:21;101134.81;;;3.27;78.65
75996;BME280;64681;49.738;9.004;2023-02-14T16:17:48;101132.88;;;3.22;78.37